Time;durP1;ratioP1;P1;durP2;ratioP2;P2;SDS_P1;SDS_P2;PMS_P1;PMS_P2;Temp;Humidity;BMP_temperature;BMP_pressure;BME280_temperature;BME280_humidity;BME280_pressure;Samples;Min_cycle;Max_cycle;Signal;HPM_P1;HPM_P2
2022/04/02 00:02:18;;;;;;;;;;;;;;;;;;6121157;23;19931;-84
2022/04/02 00:04:46;;;;;;;;;;;;;;;;;;6119288;23;19928;-84
2022/04/02 00:07:12;;;;;;;;;;;;;;;;;;6118898;23;20802;-84
2022/04/02 00:09:40;;;;;;;;;;;;;;;;;;6145981;23;19920;-83
2022/04/02 00:12:26;;;;;;;;;;;;;;;;;;6082488;23;19953;-84
2022/04/02 00:15:06;;;;;;;;;;;;;;;;;;6030304;23;19958;-84
2022/04/02 00:17:33;;;;;;;;;;;;;;;;;;6006616;23;20241;-83
2022/04/02 00:20:14;;;;;;;;;;;;;;;;;;6000914;23;19925;-83
2022/04/02 00:23:35;;;;;;;;;;;;;;;;;;5977133;23;20380;-84
2022/04/02 00:25:43;;;;;;;;;;;;;;;;;;6028705;23;19959;-84
2022/04/02 00:28:09;;;;;;;;;;;;;;;;;;6003709;23;19949;-84
2022/04/02 00:30:41;;;;;;;;;;;;;;;;;;6004416;23;20008;-84
2022/04/02 00:33:08;;;;;;;;;;;;;;;;;;6003614;23;19997;-84
2022/04/02 00:35:35;;;;;;;;;;;;;;;;;;6004662;23;20435;-83
2022/04/02 00:38:16;;;;;;;;;;;;;;;;;;5909140;24;20002;-84
2022/04/02 00:40:57;;;;;;;;;;;;;;;;;;5833893;24;20373;-83
2022/04/02 00:43:24;;;;;;;;;;;;;;;;;;5855356;24;19941;-84
2022/04/02 00:45:52;;;;;;;;;;;;;;;;;;5858679;24;19923;-83
2022/04/02 00:48:28;;;;;;;;;;;;;;;;;;5912916;24;19923;-83
2022/04/02 00:50:57;;;;;;;;;;;;;;;;;;5933976;24;19922;-83
2022/04/02 00:53:25;;;;;;;;;;;;;;;;;;5993957;23;20446;-84
2022/04/02 00:56:07;;;;;;;;;;;;;;;;;;5968445;24;20010;-84
2022/04/02 00:58:35;;;;;;;;;;;;;;;;;;5992185;23;19922;-83
2022/04/02 01:01:02;;;;;;;;;;;;;;;;;;5991740;23;20778;-84
2022/04/02 01:03:29;;;;;;;;;;;;;;;;;;5968082;24;19974;-84
2022/04/02 01:05:56;;;;;;;;;;;;;;;;;;5968954;24;19929;-84
2022/04/02 01:08:23;;;;;;;;;;;;;;;;;;5991331;23;19954;-84
2022/04/02 01:10:50;;;;;;;;;;;;;;;;;;5992849;23;20033;-84
2022/04/02 01:13:23;;;;;;;;;;;;;;;;;;6028803;23;19959;-83
2022/04/02 01:16:11;;;;;;;;;;;;;;;;;;6113586;23;20336;-84
2022/04/02 01:18:39;;;;;;;;;;;;;;;;;;6118912;23;19936;-84
2022/04/02 01:21:05;;;;;;;;;;;;;;;;;;6117689;23;19980;-83
2022/04/02 01:23:35;;;;;;;;;;;;;;;;;;6117149;23;19920;-83
2022/04/02 01:26:03;;;;;;;;;;;;;;;;;;6091433;23;2041921;-84
2022/04/02 01:28:33;;;;;;;;;;;;;;;;;;6178410;23;19996;-83
2022/04/02 01:31:01;;;;;;;;;;;;;;;;;;6177588;23;19920;-83
2022/04/02 01:33:49;;;;;;;;;;;;;;;;;;6171798;23;19924;-83
2022/04/02 01:36:36;;;;;;;;;;;;;;;;;;6179500;23;19930;-83
2022/04/02 01:39:02;;;;;;;;;;;;;;;;;;6204856;23;20319;-83
2022/04/02 01:41:35;;;;;;;;;;;;;;;;;;6204421;23;20398;-83
2022/04/02 01:44:01;;;;;;;;;;;;;;;;;;6154276;23;20067;-83
2022/04/02 01:46:29;;;;;;;;;;;;;;;;;;6204607;23;19920;-83
2022/04/02 01:48:56;;;;;;;;;;;;;;;;;;6154760;23;19971;-83
2022/04/02 01:51:23;;;;;;;;;;;;;;;;;;6153116;23;20441;-83
2022/04/02 01:53:50;;;;;;;;;;;;;;;;;;6205022;23;19944;-83
2022/04/02 01:56:17;;;;;;;;;;;;;;;;;;6153871;23;19920;-83
2022/04/02 01:58:45;;;;;;;;;;;;;;;;;;6155005;23;19927;-83
2022/04/02 02:01:12;;;;;;;;;;;;;;;;;;6203987;23;20713;-84
2022/04/02 02:03:38;;;;;;;;;;;;;;;;;;6149730;23;20050;-83
2022/04/02 02:06:19;;;;;;;;;;;;;;;;;;6170890;23;19922;-83
2022/04/02 02:08:47;;;;;;;;;;;;;;;;;;6170144;23;19930;-83
2022/04/02 02:11:13;;;;;;;;;;;;;;;;;;6145413;23;19920;-84
2022/04/02 02:13:40;;;;;;;;;;;;;;;;;;6146706;23;20022;-83
2022/04/02 02:16:07;;;;;;;;;;;;;;;;;;6145064;23;20006;-83
2022/04/02 02:18:34;;;;;;;;;;;;;;;;;;6145917;23;19975;-83
2022/04/02 02:21:02;;;;;;;;;;;;;;;;;;6145290;23;20363;-83
2022/04/02 02:23:30;;;;;;;;;;;;;;;;;;6170881;23;19916;-83
2022/04/02 02:25:58;;;;;;;;;;;;;;;;;;6139103;23;19924;-84
2022/04/02 02:28:25;;;;;;;;;;;;;;;;;;6140290;23;19920;-83
2022/04/02 02:30:52;;;;;;;;;;;;;;;;;;6140398;23;19920;-83
2022/04/02 02:36:10;;;;;;;;;;;;;;;;;;6115936;23;19932;-83
2022/04/02 02:38:37;;;;;;;;;;;;;;;;;;6176398;23;19920;-83
2022/04/02 02:41:22;;;;;;;;;;;;;;;;;;6140557;23;19924;-83
2022/04/02 02:43:53;;;;;;;;;;;;;;;;;;6142616;23;19975;-83
2022/04/02 02:46:20;;;;;;;;;;;;;;;;;;6115776;23;19921;-83
2022/04/02 02:48:50;;;;;;;;;;;;;;;;;;6141921;23;19996;-83
2022/04/02 02:51:18;;;;;;;;;;;;;;;;;;6116372;23;20345;-83
2022/04/02 02:53:45;;;;;;;;;;;;;;;;;;6141533;23;19921;-83
2022/04/02 02:56:12;;;;;;;;;;;;;;;;;;6139787;23;19920;-83
2022/04/02 02:58:39;;;;;;;;;;;;;;;;;;6140661;23;20495;-83
2022/04/02 03:01:06;;;;;;;;;;;;;;;;;;6140088;23;20461;-84
2022/04/02 03:03:45;;;;;;;;;;;;;;;;;;6117816;23;20002;-83
2022/04/02 03:06:13;;;;;;;;;;;;;;;;;;6112857;23;20292;-83
2022/04/02 03:08:40;;;;;;;;;;;;;;;;;;6118323;23;19924;-83
2022/04/02 03:11:07;;;;;;;;;;;;;;;;;;6140719;23;19995;-83
2022/04/02 03:13:38;;;;;;;;;;;;;;;;;;6176535;23;19986;-83
2022/04/02 03:16:06;;;;;;;;;;;;;;;;;;6177411;23;19970;-83
2022/04/02 03:18:34;;;;;;;;;;;;;;;;;;6177009;23;19970;-83
2022/04/02 03:21:01;;;;;;;;;;;;;;;;;;6177829;23;19920;-83
2022/04/02 03:23:28;;;;;;;;;;;;;;;;;;6177095;23;19920;-83
2022/04/02 03:25:55;;;;;;;;;;;;;;;;;;6176671;23;19924;-83
2022/04/02 03:28:23;;;;;;;;;;;;;;;;;;6177170;23;19987;-83
2022/04/02 03:30:49;;;;;;;;;;;;;;;;;;6175288;23;19926;-83
2022/04/02 03:33:18;;;;;;;;;;;;;;;;;;6177124;23;19919;-83
2022/04/02 03:35:48;;;;;;;;;;;;;;;;;;6180174;23;19924;-83
2022/04/02 03:38:15;;;;;;;;;;;;;;;;;;6180703;23;19919;-83
2022/04/02 03:40:43;;;;;;;;;;;;;;;;;;6182780;23;20025;-83
2022/04/02 03:43:10;;;;;;;;;;;;;;;;;;6182789;23;20070;-83
2022/04/02 03:45:37;;;;;;;;;;;;;;;;;;6182548;23;19919;-83
2022/04/02 03:48:04;;;;;;;;;;;;;;;;;;6182964;23;19920;-83
2022/04/02 03:50:32;;;;;;;;;;;;;;;;;;6181022;23;19990;-83
2022/04/02 03:53:02;;;;;;;;;;;;;;;;;;6183908;23;19919;-83
2022/04/02 03:55:45;;;;;;;;;;;;;;;;;;6145893;23;20003;-83
2022/04/02 03:58:12;;;;;;;;;;;;;;;;;;6097711;23;19921;-83
2022/04/02 04:00:38;;;;;;;;;;;;;;;;;;6096752;23;20248;-83
2022/04/02 04:03:19;;;;;;;;;;;;;;;;;;6085143;23;19921;-83
2022/04/02 04:05:45;;;;;;;;;;;;;;;;;;6083229;23;19917;-84
2022/04/02 04:08:12;;;;;;;;;;;;;;;;;;6084999;23;19921;-83
2022/04/02 04:10:38;;;;;;;;;;;;;;;;;;6060314;23;19921;-83
2022/04/02 04:13:05;;;;;;;;;;;;;;;;;;6084607;23;19929;-83
2022/04/02 04:15:33;;;;;;;;;;;;;;;;;;6084920;23;19971;-83
2022/04/02 04:18:00;;;;;;;;;;;;;;;;;;6083033;23;19921;-83
2022/04/02 04:20:27;;;;;;;;;;;;;;;;;;6083409;23;20348;-83
2022/04/02 04:22:55;;;;;;;;;;;;;;;;;;6084049;23;19921;-83
2022/04/02 04:25:22;;;;;;;;;;;;;;;;;;6058264;23;20382;-83
2022/04/02 04:27:49;;;;;;;;;;;;;;;;;;6085803;23;19927;-83
2022/04/02 04:30:36;;;;;;;;;;;;;;;;;;6086416;23;19992;-84
2022/04/02 04:33:02;;;;;;;;;;;;;;;;;;6112168;23;20298;-84
2022/04/02 04:35:30;;;;;;;;;;;;;;;;;;6142045;23;19925;-83
2022/04/02 04:37:57;;;;;;;;;;;;;;;;;;6117285;23;19921;-84
2022/04/02 04:40:23;;;;;;;;;;;;;;;;;;6117022;23;19976;-83
2022/04/02 04:42:50;;;;;;;;;;;;;;;;;;6118057;23;19924;-83
2022/04/02 04:45:23;;;;;;;;;;;;;;;;;;6117452;23;19943;-83
2022/04/02 04:47:50;;;;;;;;;;;;;;;;;;6117585;23;19921;-83
2022/04/02 04:50:19;;;;;;;;;;;;;;;;;;6117066;23;19988;-83
2022/04/02 04:52:46;;;;;;;;;;;;;;;;;;6165815;23;19959;-83
2022/04/02 04:55:14;;;;;;;;;;;;;;;;;;6141500;23;19935;-84
2022/04/02 04:57:39;;;;;;;;;;;;;;;;;;6117980;23;19917;-83
2022/04/02 05:00:05;;;;;;;;;;;;;;;;;;6142322;23;20309;-83
2022/04/02 05:02:35;;;;;;;;;;;;;;;;;;6116582;23;19925;-83
2022/04/02 05:05:05;;;;;;;;;;;;;;;;;;6142099;23;20092;-83
2022/04/02 05:07:31;;;;;;;;;;;;;;;;;;6117017;23;19927;-83
2022/04/02 05:09:58;;;;;;;;;;;;;;;;;;6117424;23;19921;-83
2022/04/02 05:12:25;;;;;;;;;;;;;;;;;;6117764;23;19920;-83
2022/04/02 05:14:51;;;;;;;;;;;;;;;;;;6159588;23;19924;-83
2022/04/02 05:17:19;;;;;;;;;;;;;;;;;;6176997;23;19934;-83
2022/04/02 05:19:46;;;;;;;;;;;;;;;;;;6179836;23;19974;-83
2022/04/02 05:22:13;;;;;;;;;;;;;;;;;;6180071;23;20273;-83
2022/04/02 05:24:40;;;;;;;;;;;;;;;;;;6172539;23;19995;-83
2022/04/02 05:27:08;;;;;;;;;;;;;;;;;;6173184;23;19920;-83
2022/04/02 05:29:37;;;;;;;;;;;;;;;;;;6174045;23;19974;-83
2022/04/02 05:32:04;;;;;;;;;;;;;;;;;;6173716;23;19920;-83
2022/04/02 05:34:30;;;;;;;;;;;;;;;;;;6177337;23;19924;-83
2022/04/02 05:36:58;;;;;;;;;;;;;;;;;;6176347;23;19916;-83
2022/04/02 05:39:25;;;;;;;;;;;;;;;;;;6200777;23;19920;-83
2022/04/02 05:41:53;;;;;;;;;;;;;;;;;;6176932;23;19924;-83
2022/04/02 05:44:21;;;;;;;;;;;;;;;;;;6176495;23;19927;-83
2022/04/02 05:46:47;;;;;;;;;;;;;;;;;;6176195;23;19939;-83
2022/04/02 05:49:33;;;;;;;;;;;;;;;;;;6179555;23;19919;-83
2022/04/02 05:52:22;;;;;;;;;;;;;;;;;;6204718;23;19974;-83
2022/04/02 05:54:49;;;;;;;;;;;;;;;;;;6179294;23;19995;-83
2022/04/02 05:57:16;;;;;;;;;;;;;;;;;;6177917;23;19920;-83
2022/04/02 05:59:43;;;;;;;;;;;;;;;;;;6180467;23;19987;-83
2022/04/02 06:02:11;;;;;;;;;;;;;;;;;;6177438;23;19927;-84
2022/04/02 06:04:38;;;;;;;;;;;;;;;;;;6202210;23;19919;-83
2022/04/02 06:07:05;;;;;;;;;;;;;;;;;;6176378;23;19919;-83
2022/04/02 06:09:46;;;;;;;;;;;;;;;;;;6090613;23;19961;-83
2022/04/02 06:12:13;;;;;;;;;;;;;;;;;;6087547;23;19920;-83
2022/04/02 06:14:39;;;;;;;;;;;;;;;;;;6091770;23;20590;-83
2022/04/02 06:17:09;;;;;;;;;;;;;;;;;;6115122;23;19936;-84
2022/04/02 06:19:36;;;;;;;;;;;;;;;;;;6091305;23;19921;-83
2022/04/02 06:22:06;;;;;;;;;;;;;;;;;;6091345;23;20339;-83
2022/04/02 06:24:32;;;;;;;;;;;;;;;;;;6115542;23;19960;-83
2022/04/02 06:27:00;;;;;;;;;;;;;;;;;;6089652;23;20148;-83
2022/04/02 06:29:27;;;;;;;;;;;;;;;;;;6111466;23;20396;-83
2022/04/02 06:32:09;;;;;;;;;;;;;;;;;;6112086;23;19921;-83
2022/04/02 06:34:36;;;;;;;;;;;;;;;;;;6088821;23;20294;-83
2022/04/02 06:37:04;;;;;;;;;;;;;;;;;;6087340;23;20436;-83
2022/04/02 06:39:30;;;;;;;;;;;;;;;;;;6088393;23;19927;-84
2022/04/02 06:41:58;;;;;;;;;;;;;;;;;;6172356;23;19947;-83
2022/04/02 06:44:29;;;;;;;;;;;;;;;;;;6173206;23;19927;-83
2022/04/02 06:46:59;;;;;;;;;;;;;;;;;;6174622;23;19971;-83
2022/04/02 06:49:36;;;;;;;;;;;;;;;;;;6175217;23;20063;-84
2022/04/02 06:52:03;;;;;;;;;;;;;;;;;;6172418;23;19924;-84
2022/04/02 06:54:30;;;;;;;;;;;;;;;;;;6172269;23;20294;-84
2022/04/02 06:56:58;;;;;;;;;;;;;;;;;;6172403;23;19920;-84
2022/04/02 06:59:41;;;;;;;;;;;;;;;;;;6175226;23;20330;-83
2022/04/02 07:02:08;;;;;;;;;;;;;;;;;;6172761;23;19920;-84
2022/04/02 07:04:35;;;;;;;;;;;;;;;;;;6174205;23;19931;-83
2022/04/02 07:07:02;;;;;;;;;;;;;;;;;;6171608;23;20683;-83
2022/04/02 07:09:28;;;;;;;;;;;;;;;;;;6172952;23;20498;-84
2022/04/02 07:12:12;;;;;;;;;;;;;;;;;;6112164;23;19921;-83
2022/04/02 07:14:42;;;;;;;;;;;;;;;;;;6089482;23;19924;-83
2022/04/02 07:17:10;;;;;;;;;;;;;;;;;;6109689;23;20040;-83
2022/04/02 07:19:36;;;;;;;;;;;;;;;;;;6090950;23;20055;-84
2022/04/02 07:22:03;;;;;;;;;;;;;;;;;;6090965;23;20424;-84
2022/04/02 07:24:30;;;;;;;;;;;;;;;;;;6091932;23;20004;-84
2022/04/02 07:26:56;;;;;;;;;;;;;;;;;;6088619;23;19932;-85
2022/04/02 07:29:40;;;;;;;;;;;;;;;;;;6114220;23;19927;-84
2022/04/02 07:32:09;;;;;;;;;;;;;;;;;;6114970;23;19921;-86
2022/04/02 07:34:46;;;;;;;;;;;;;;;;;;6093991;23;19924;-85
2022/04/02 07:37:12;;;;;;;;;;;;;;;;;;6092643;23;19925;-84
2022/04/02 07:39:39;;;;;;;;;;;;;;;;;;6092242;23;19920;-84
2022/04/02 07:42:05;;;;;;;;;;;;;;;;;;6094089;23;19924;-84
2022/04/02 07:44:32;;;;;;;;;;;;;;;;;;6099578;23;19917;-84
2022/04/02 07:46:59;;;;;;;;;;;;;;;;;;6124048;23;19920;-85
2022/04/02 07:49:27;;;;;;;;;;;;;;;;;;6123378;23;19921;-84
2022/04/02 07:51:57;;;;;;;;;;;;;;;;;;6125233;23;19926;-84
2022/04/02 07:54:24;;;;;;;;;;;;;;;;;;6123872;23;20402;-84
2022/04/02 07:56:51;;;;;;;;;;;;;;;;;;6099914;23;19959;-84
2022/04/02 07:59:17;;;;;;;;;;;;;;;;;;6098152;23;19921;-85
2022/04/02 08:01:44;;;;;;;;;;;;;;;;;;6098752;23;19928;-85
2022/04/02 08:04:11;;;;;;;;;;;;;;;;;;6096622;23;19940;-85
2022/04/02 08:06:37;;;;;;;;;;;;;;;;;;6095589;23;19924;-85
2022/04/02 08:09:04;;;;;;;;;;;;;;;;;;6095910;23;19927;-86
2022/04/02 08:11:32;;;;;;;;;;;;;;;;;;6121833;23;20342;-85
2022/04/02 08:13:58;;;;;;;;;;;;;;;;;;6121589;23;19928;-85
2022/04/02 08:16:25;;;;;;;;;;;;;;;;;;6097283;23;19925;-84
2022/04/02 08:18:52;;;;;;;;;;;;;;;;;;6122454;23;19921;-85
2022/04/02 08:21:19;;;;;;;;;;;;;;;;;;6121269;23;19983;-84
2022/04/02 08:23:46;;;;;;;;;;;;;;;;;;6098899;23;19984;-85
2022/04/02 08:26:13;;;;;;;;;;;;;;;;;;6112269;23;20253;-85
2022/04/02 08:28:40;;;;;;;;;;;;;;;;;;6151828;23;19920;-85
2022/04/02 08:31:07;;;;;;;;;;;;;;;;;;6127186;23;19920;-84
2022/04/02 08:33:33;;;;;;;;;;;;;;;;;;6127260;23;20640;-84
2022/04/02 08:36:19;;;;;;;;;;;;;;;;;;6155268;23;19962;-84
2022/04/02 08:38:46;;;;;;;;;;;;;;;;;;6151818;23;19923;-84
2022/04/02 08:41:14;;;;;;;;;;;;;;;;;;6128458;23;19920;-85
2022/04/02 08:43:41;;;;;;;;;;;;;;;;;;6152930;23;20245;-84
2022/04/02 08:46:08;;;;;;;;;;;;;;;;;;6130247;23;19916;-84
2022/04/02 08:48:35;;;;;;;;;;;;;;;;;;6155813;23;19924;-84
2022/04/02 08:51:01;;;;;;;;;;;;;;;;;;6150794;23;20257;-84
2022/04/02 08:53:47;;;;;;;;;;;;;;;;;;6159041;23;19964;-84
2022/04/02 08:56:15;;;;;;;;;;;;;;;;;;6130833;23;20355;-85
2022/04/02 08:58:42;;;;;;;;;;;;;;;;;;6129598;23;19943;-84
2022/04/02 09:01:09;;;;;;;;;;;;;;;;;;6124710;23;20312;-84
2022/04/02 09:03:36;;;;;;;;;;;;;;;;;;6126147;23;19996;-85
2022/04/02 09:06:03;;;;;;;;;;;;;;;;;;6175877;23;19916;-84
2022/04/02 09:08:31;;;;;;;;;;;;;;;;;;6126223;23;20415;-85
2022/04/02 09:10:58;;;;;;;;;;;;;;;;;;6149867;23;20325;-85
2022/04/02 09:13:24;;;;;;;;;;;;;;;;;;6126543;23;19927;-84
2022/04/02 09:15:51;;;;;;;;;;;;;;;;;;6151480;23;19924;-84
2022/04/02 09:18:17;;;;;;;;;;;;;;;;;;6147916;23;19921;-84
2022/04/02 09:20:44;;;;;;;;;;;;;;;;;;6129298;23;19926;-85
2022/04/02 09:23:12;;;;;;;;;;;;;;;;;;6127867;23;19920;-84
2022/04/02 09:25:39;;;;;;;;;;;;;;;;;;6156378;23;19927;-84
2022/04/02 09:28:07;;;;;;;;;;;;;;;;;;6178755;23;19924;-84
2022/04/02 09:30:34;;;;;;;;;;;;;;;;;;6183404;23;20253;-84
2022/04/02 09:33:02;;;;;;;;;;;;;;;;;;6184363;23;20375;-85
2022/04/02 09:35:31;;;;;;;;;;;;;;;;;;6183110;23;20341;-84
2022/04/02 09:37:59;;;;;;;;;;;;;;;;;;6183107;23;20390;-84
2022/04/02 09:40:29;;;;;;;;;;;;;;;;;;6210985;23;19919;-84
2022/04/02 09:42:56;;;;;;;;;;;;;;;;;;6183315;23;20297;-85
2022/04/02 09:45:24;;;;;;;;;;;;;;;;;;6183666;23;19926;-84
2022/04/02 09:47:51;;;;;;;;;;;;;;;;;;6183941;23;19920;-84
2022/04/02 09:50:18;;;;;;;;;;;;;;;;;;6183137;23;19920;-84
2022/04/02 09:52:45;;;;;;;;;;;;;;;;;;6184424;23;20257;-84
2022/04/02 09:55:12;;;;;;;;;;;;;;;;;;6184421;23;19924;-84
2022/04/02 09:57:39;;;;;;;;;;;;;;;;;;6184492;23;19920;-84
2022/04/02 10:00:06;;;;;;;;;;;;;;;;;;6184421;23;19919;-84
2022/04/02 10:02:34;;;;;;;;;;;;;;;;;;6184637;23;19974;-84
2022/04/02 10:05:01;;;;;;;;;;;;;;;;;;6183463;23;20252;-84
2022/04/02 10:07:28;;;;;;;;;;;;;;;;;;6180369;23;19926;-84
2022/04/02 10:09:56;;;;;;;;;;;;;;;;;;6180303;23;19920;-84
2022/04/02 10:12:23;;;;;;;;;;;;;;;;;;6180885;23;19963;-84
2022/04/02 10:14:50;;;;;;;;;;;;;;;;;;6180656;23;19994;-84
2022/04/02 10:17:18;;;;;;;;;;;;;;;;;;6180020;23;19920;-84
2022/04/02 10:19:45;;;;;;;;;;;;;;;;;;6180556;23;19923;-84
2022/04/02 10:22:11;;;;;;;;;;;;;;;;;;6179612;23;19920;-84
2022/04/02 10:24:40;;;;;;;;;;;;;;;;;;6207839;23;19943;-85
2022/04/02 10:27:10;;;;;;;;;;;;;;;;;;6179910;23;19935;-84
2022/04/02 10:29:36;;;;;;;;;;;;;;;;;;6180275;23;19920;-84
2022/04/02 10:32:04;;;;;;;;;;;;;;;;;;6178984;23;19920;-84
2022/04/02 10:34:43;;;;;;;;;;;;;;;;;;6179858;23;20010;-84
2022/04/02 10:37:13;;;;;;;;;;;;;;;;;;6206352;23;19986;-84
2022/04/02 10:39:41;;;;;;;;;;;;;;;;;;6179440;23;19919;-84
2022/04/02 10:42:08;;;;;;;;;;;;;;;;;;6179934;23;20005;-84
2022/04/02 10:44:39;;;;;;;;;;;;;;;;;;6207375;23;19920;-84
2022/04/02 10:47:06;;;;;;;;;;;;;;;;;;6182744;23;20011;-84
2022/04/02 10:49:33;;;;;;;;;;;;;;;;;;6186519;23;19927;-84
2022/04/02 10:52:00;;;;;;;;;;;;;;;;;;6185842;23;19919;-84
2022/04/02 10:54:28;;;;;;;;;;;;;;;;;;6182496;23;20301;-84
2022/04/02 10:57:04;;;;;;;;;;;;;;;;;;6208951;23;19916;-84
2022/04/02 10:59:32;;;;;;;;;;;;;;;;;;6183047;23;20329;-84
2022/04/02 11:02:02;;;;;;;;;;;;;;;;;;6184397;23;19956;-85
2022/04/02 11:04:44;;;;;;;;;;;;;;;;;;6211116;23;20618;-85
2022/04/02 11:07:11;;;;;;;;;;;;;;;;;;6184187;23;20249;-84
2022/04/02 11:09:41;;;;;;;;;;;;;;;;;;6181747;23;19920;-84
2022/04/02 11:12:09;;;;;;;;;;;;;;;;;;6179414;23;20244;-84
2022/04/02 11:14:36;;;;;;;;;;;;;;;;;;6182143;23;19924;-85
2022/04/02 11:17:03;;;;;;;;;;;;;;;;;;6181377;23;19924;-85
2022/04/02 11:22:18;;;;;;;;;;;;;;;;;;6178735;23;19916;-84
2022/04/02 11:24:45;;;;;;;;;;;;;;;;;;6206675;23;20003;-85
2022/04/02 11:27:11;;;;;;;;;;;;;;;;;;6177918;23;19956;-85
2022/04/02 11:29:56;;;;;;;;;;;;;;;;;;6204387;23;20249;-85
2022/04/02 11:32:24;;;;;;;;;;;;;;;;;;6178415;23;20345;-84
2022/04/02 11:34:50;;;;;;;;;;;;;;;;;;6179908;23;19924;-84
2022/04/02 11:37:16;;;;;;;;;;;;;;;;;;6205445;23;19916;-84
2022/04/02 11:39:43;;;;;;;;;;;;;;;;;;6184941;23;20037;-84
2022/04/02 11:42:11;;;;;;;;;;;;;;;;;;6179393;23;19919;-84
2022/04/02 11:44:38;;;;;;;;;;;;;;;;;;6182244;23;19923;-84
2022/04/02 11:47:04;;;;;;;;;;;;;;;;;;6180163;23;19923;-85
2022/04/02 11:49:32;;;;;;;;;;;;;;;;;;6180511;23;19923;-84
2022/04/02 11:51:59;;;;;;;;;;;;;;;;;;6180602;23;19947;-84
2022/04/02 11:54:26;;;;;;;;;;;;;;;;;;6180991;23;19916;-85
2022/04/02 11:56:53;;;;;;;;;;;;;;;;;;6181037;23;19924;-84
2022/04/02 11:59:21;;;;;;;;;;;;;;;;;;6182472;23;19923;-84
2022/04/02 12:01:51;;;;;;;;;;;;;;;;;;6206106;23;19920;-84
2022/04/02 12:04:19;;;;;;;;;;;;;;;;;;6183558;23;19941;-85
2022/04/02 12:06:46;;;;;;;;;;;;;;;;;;6183831;23;19983;-86
2022/04/02 12:09:15;;;;;;;;;;;;;;;;;;6205704;23;19920;-86
2022/04/02 12:14:45;;;;;;;;;;;;;;;;;;6182272;23;19931;-85
2022/04/02 12:17:14;;;;;;;;;;;;;;;;;;6183641;23;19930;-85
2022/04/02 12:19:44;;;;;;;;;;;;;;;;;;6183309;23;19926;-85
2022/04/02 12:22:17;;;;;;;;;;;;;;;;;;6180506;23;19966;-85
2022/04/02 12:24:59;;;;;;;;;;;;;;;;;;6178162;23;20424;-84
2022/04/02 12:27:30;;;;;;;;;;;;;;;;;;6167497;23;20023;-85
2022/04/02 12:30:15;;;;;;;;;;;;;;;;;;6058230;23;20403;-85
2022/04/02 12:32:49;;;;;;;;;;;;;;;;;;6107461;23;19920;-84
2022/04/02 12:35:39;;;;;;;;;;;;;;;;;;6147413;23;19927;-86
2022/04/02 12:38:21;;;;;;;;;;;;;;;;;;6143339;23;19924;-85
2022/04/02 12:40:56;;;;;;;;;;;;;;;;;;6119790;23;19916;-85
2022/04/02 12:43:23;;;;;;;;;;;;;;;;;;6145934;23;19931;-85
2022/04/02 12:45:50;;;;;;;;;;;;;;;;;;6138307;23;19917;-85
2022/04/02 12:48:20;;;;;;;;;;;;;;;;;;6148777;23;19921;-81
2022/04/02 12:51:08;;;;;;;;;;;;;;;;;;6116786;23;19968;-85
2022/04/02 12:53:34;;;;;;;;;;;;;;;;;;6140719;23;19928;-85
2022/04/02 12:56:01;;;;;;;;;;;;;;;;;;6144503;23;19924;-84
2022/04/02 12:58:28;;;;;;;;;;;;;;;;;;6144010;23;19995;-84
2022/04/02 13:00:54;;;;;;;;;;;;;;;;;;6168986;23;20513;-84
2022/04/02 13:03:27;;;;;;;;;;;;;;;;;;6170492;23;19970;-83
2022/04/02 13:05:54;;;;;;;;;;;;;;;;;;6169692;23;19995;-84
2022/04/02 13:08:22;;;;;;;;;;;;;;;;;;6118552;23;19921;-84
2022/04/02 13:10:49;;;;;;;;;;;;;;;;;;6169445;23;20392;-83
2022/04/02 13:13:16;;;;;;;;;;;;;;;;;;6140087;23;20254;-84
2022/04/02 13:15:42;;;;;;;;;;;;;;;;;;6141052;23;20087;-85
2022/04/02 13:20:57;;;;;;;;;;;;;;;;;;6169574;23;20405;-84
2022/04/02 13:23:25;;;;;;;;;;;;;;;;;;6142905;23;20329;-85
2022/04/02 13:26:01;;;;;;;;;;;;;;;;;;6139692;23;19992;-84
2022/04/02 13:28:28;;;;;;;;;;;;;;;;;;6092281;23;19944;-84
2022/04/02 13:30:55;;;;;;;;;;;;;;;;;;6115692;23;19920;-84
2022/04/02 13:33:23;;;;;;;;;;;;;;;;;;6092138;23;19983;-84
2022/04/02 13:35:54;;;;;;;;;;;;;;;;;;6115464;23;19931;-83
2022/04/02 13:38:22;;;;;;;;;;;;;;;;;;6122739;23;19920;-84
2022/04/02 13:40:49;;;;;;;;;;;;;;;;;;6122547;23;19987;-84
2022/04/02 13:43:16;;;;;;;;;;;;;;;;;;6121673;23;19971;-83
2022/04/02 13:45:43;;;;;;;;;;;;;;;;;;6121930;23;19963;-83
2022/04/02 13:48:10;;;;;;;;;;;;;;;;;;6122338;23;19975;-83
2022/04/02 13:50:37;;;;;;;;;;;;;;;;;;6121590;23;19920;-83
2022/04/02 13:53:04;;;;;;;;;;;;;;;;;;6122449;23;19920;-83
2022/04/02 13:55:47;;;;;;;;;;;;;;;;;;6148948;23;20038;-84
2022/04/02 13:58:14;;;;;;;;;;;;;;;;;;6123375;23;19921;-83
2022/04/02 14:00:43;;;;;;;;;;;;;;;;;;6116935;23;19928;-83
2022/04/02 14:03:10;;;;;;;;;;;;;;;;;;6117429;23;19927;-84
2022/04/02 14:05:47;;;;;;;;;;;;;;;;;;6117501;23;19927;-84
2022/04/02 14:08:16;;;;;;;;;;;;;;;;;;6120870;23;19920;-84
2022/04/02 14:10:44;;;;;;;;;;;;;;;;;;6123244;23;19923;-83
2022/04/02 14:13:11;;;;;;;;;;;;;;;;;;6121626;23;19971;-83
2022/04/02 14:15:38;;;;;;;;;;;;;;;;;;6145578;23;20334;-84
2022/04/02 14:18:05;;;;;;;;;;;;;;;;;;6121968;23;20281;-84
2022/04/02 14:20:32;;;;;;;;;;;;;;;;;;6122348;23;19925;-84
2022/04/02 14:23:03;;;;;;;;;;;;;;;;;;6119461;23;20598;-84
2022/04/02 14:25:30;;;;;;;;;;;;;;;;;;6144312;23;19924;-84
2022/04/02 14:27:57;;;;;;;;;;;;;;;;;;6103830;23;20345;-84
2022/04/02 14:30:23;;;;;;;;;;;;;;;;;;6098268;23;19928;-84
2022/04/02 14:32:51;;;;;;;;;;;;;;;;;;6108097;23;20372;-84
2022/04/02 14:35:18;;;;;;;;;;;;;;;;;;6120718;23;19927;-83
2022/04/02 14:37:44;;;;;;;;;;;;;;;;;;6121733;23;19936;-84
2022/04/02 14:40:11;;;;;;;;;;;;;;;;;;6121452;23;20289;-84
2022/04/02 14:42:39;;;;;;;;;;;;;;;;;;6121205;23;20326;-83
2022/04/02 14:45:05;;;;;;;;;;;;;;;;;;6120995;23;19952;-84
2022/04/02 14:47:31;;;;;;;;;;;;;;;;;;6122489;23;19993;-83
2022/04/02 14:50:04;;;;;;;;;;;;;;;;;;6122032;23;19978;-83
2022/04/02 14:52:31;;;;;;;;;;;;;;;;;;6121716;23;19916;-83
2022/04/02 14:54:57;;;;;;;;;;;;;;;;;;6120498;23;20338;-83
2022/04/02 14:57:38;;;;;;;;;;;;;;;;;;6085987;23;20000;-84
2022/04/02 15:00:05;;;;;;;;;;;;;;;;;;6084399;23;20449;-83
2022/04/02 15:02:33;;;;;;;;;;;;;;;;;;6057125;23;19921;-83
2022/04/02 15:05:00;;;;;;;;;;;;;;;;;;6080554;23;19928;-83
2022/04/02 15:07:27;;;;;;;;;;;;;;;;;;6058365;23;19925;-83
2022/04/02 15:09:54;;;;;;;;;;;;;;;;;;6056820;23;19925;-83
2022/04/02 15:12:22;;;;;;;;;;;;;;;;;;6057627;23;19921;-83
2022/04/02 15:14:49;;;;;;;;;;;;;;;;;;6057546;23;19957;-83
2022/04/02 15:17:15;;;;;;;;;;;;;;;;;;6057578;23;19918;-84
2022/04/02 15:19:56;;;;;;;;;;;;;;;;;;6055284;23;19921;-84
2022/04/02 15:22:23;;;;;;;;;;;;;;;;;;6055079;23;20327;-83
2022/04/02 15:24:56;;;;;;;;;;;;;;;;;;6053837;23;19993;-84
2022/04/02 15:27:23;;;;;;;;;;;;;;;;;;6073611;23;19925;-83
2022/04/02 15:29:57;;;;;;;;;;;;;;;;;;6084933;23;20257;-83
2022/04/02 15:32:24;;;;;;;;;;;;;;;;;;6086385;23;20354;-83
2022/04/02 15:34:51;;;;;;;;;;;;;;;;;;6085795;23;19920;-84
2022/04/02 15:37:18;;;;;;;;;;;;;;;;;;6090953;23;20243;-83
2022/04/02 15:39:44;;;;;;;;;;;;;;;;;;6090956;23;19984;-83
2022/04/02 15:42:12;;;;;;;;;;;;;;;;;;6091192;23;20347;-83
2022/04/02 15:44:39;;;;;;;;;;;;;;;;;;6091412;23;19968;-84
2022/04/02 15:47:07;;;;;;;;;;;;;;;;;;6091739;23;19917;-83
2022/04/02 15:49:34;;;;;;;;;;;;;;;;;;6115562;23;19965;-84
2022/04/02 15:52:01;;;;;;;;;;;;;;;;;;6120186;23;19927;-84
2022/04/02 15:54:29;;;;;;;;;;;;;;;;;;6121319;23;19920;-83
2022/04/02 15:56:56;;;;;;;;;;;;;;;;;;6120969;23;20254;-84
2022/04/02 15:59:24;;;;;;;;;;;;;;;;;;6122471;23;19927;-83
2022/04/02 16:01:51;;;;;;;;;;;;;;;;;;6121420;23;19921;-83
2022/04/02 16:04:23;;;;;;;;;;;;;;;;;;6146149;23;19948;-83
2022/04/02 16:06:49;;;;;;;;;;;;;;;;;;6122276;23;20241;-83
2022/04/02 16:09:15;;;;;;;;;;;;;;;;;;6118111;23;20336;-83
2022/04/02 16:11:45;;;;;;;;;;;;;;;;;;6118695;23;19921;-83
2022/04/02 16:14:13;;;;;;;;;;;;;;;;;;6117613;23;19931;-83
2022/04/02 16:16:41;;;;;;;;;;;;;;;;;;6117831;23;20242;-83
2022/04/02 16:19:08;;;;;;;;;;;;;;;;;;6117769;23;19921;-84
2022/04/02 16:21:49;;;;;;;;;;;;;;;;;;6082370;23;19925;-84
2022/04/02 16:24:16;;;;;;;;;;;;;;;;;;6082619;23;20334;-84
2022/04/02 16:26:43;;;;;;;;;;;;;;;;;;6066129;23;20398;-84
2022/04/02 16:29:10;;;;;;;;;;;;;;;;;;6056965;23;20358;-85
2022/04/02 16:31:39;;;;;;;;;;;;;;;;;;6058113;23;20359;-85
2022/04/02 16:34:15;;;;;;;;;;;;;;;;;;6082508;23;20394;-84
2022/04/02 16:36:42;;;;;;;;;;;;;;;;;;6057949;23;19985;-84
2022/04/02 16:39:09;;;;;;;;;;;;;;;;;;6059387;23;19922;-84
2022/04/02 16:41:37;;;;;;;;;;;;;;;;;;6059932;23;19952;-84
2022/04/02 16:44:04;;;;;;;;;;;;;;;;;;6058495;23;19921;-84
2022/04/02 16:46:31;;;;;;;;;;;;;;;;;;6058644;23;19921;-84
2022/04/02 16:48:58;;;;;;;;;;;;;;;;;;6057784;23;19921;-84
2022/04/02 16:51:25;;;;;;;;;;;;;;;;;;6058966;23;19925;-84
2022/04/02 16:53:52;;;;;;;;;;;;;;;;;;6113329;23;20329;-84
2022/04/02 16:56:20;;;;;;;;;;;;;;;;;;6118204;23;20361;-84
2022/04/02 16:58:47;;;;;;;;;;;;;;;;;;6122032;23;19948;-84
2022/04/02 17:01:13;;;;;;;;;;;;;;;;;;6147117;23;19924;-84
2022/04/02 17:03:54;;;;;;;;;;;;;;;;;;6094207;23;20498;-84
2022/04/02 17:06:21;;;;;;;;;;;;;;;;;;6114893;23;19916;-84
2022/04/02 17:08:48;;;;;;;;;;;;;;;;;;6091615;23;20294;-84
2022/04/02 17:11:15;;;;;;;;;;;;;;;;;;6115613;23;20274;-83